sensor_id;sensor_type;location;lat;lon;timestamp;P1;durP1;ratioP1;P2;durP2;ratioP2
38132;SDS011;23948;43.252;26.572;2023-04-28T00:01:14;12.40;;;7.38;;
38132;SDS011;23948;43.252;26.572;2023-04-28T00:03:39;11.48;;;6.78;;
38132;SDS011;23948;43.252;26.572;2023-04-28T00:06:05;12.18;;;7.70;;
38132;SDS011;23948;43.252;26.572;2023-04-28T00:08:30;12.48;;;7.00;;
38132;SDS011;23948;43.252;26.572;2023-04-28T00:10:56;11.43;;;7.68;;
38132;SDS011;23948;43.252;26.572;2023-04-28T00:13:21;13.63;;;7.63;;
38132;SDS011;23948;43.252;26.572;2023-04-28T00:15:46;12.20;;;7.15;;
38132;SDS011;23948;43.252;26.572;2023-04-28T00:18:13;13.85;;;8.18;;
38132;SDS011;23948;43.252;26.572;2023-04-28T00:20:38;13.20;;;8.82;;
38132;SDS011;23948;43.252;26.572;2023-04-28T00:23:04;13.00;;;7.82;;
38132;SDS011;23948;43.252;26.572;2023-04-28T00:25:29;14.85;;;8.57;;
38132;SDS011;23948;43.252;26.572;2023-04-28T00:27:54;13.85;;;7.57;;
38132;SDS011;23948;43.252;26.572;2023-04-28T00:30:20;13.27;;;7.20;;
38132;SDS011;23948;43.252;26.572;2023-04-28T00:32:45;19.15;;;10.05;;
38132;SDS011;23948;43.252;26.572;2023-04-28T00:35:10;14.00;;;7.13;;
38132;SDS011;23948;43.252;26.572;2023-04-28T00:37:36;13.73;;;5.68;;
38132;SDS011;23948;43.252;26.572;2023-04-28T00:40:01;9.55;;;5.30;;
38132;SDS011;23948;43.252;26.572;2023-04-28T00:42:27;8.20;;;4.63;;
38132;SDS011;23948;43.252;26.572;2023-04-28T00:44:52;10.95;;;5.20;;
38132;SDS011;23948;43.252;26.572;2023-04-28T00:47:18;8.30;;;5.40;;
38132;SDS011;23948;43.252;26.572;2023-04-28T00:49:43;9.07;;;4.47;;
38132;SDS011;23948;43.252;26.572;2023-04-28T00:52:09;12.38;;;5.95;;
38132;SDS011;23948;43.252;26.572;2023-04-28T00:54:35;13.88;;;8.77;;
38132;SDS011;23948;43.252;26.572;2023-04-28T00:57:00;9.75;;;4.95;;
38132;SDS011;23948;43.252;26.572;2023-04-28T00:59:29;11.25;;;5.88;;
38132;SDS011;23948;43.252;26.572;2023-04-28T01:01:55;12.57;;;6.50;;
38132;SDS011;23948;43.252;26.572;2023-04-28T01:04:20;10.80;;;5.57;;
38132;SDS011;23948;43.252;26.572;2023-04-28T01:06:47;9.75;;;6.25;;
38132;SDS011;23948;43.252;26.572;2023-04-28T01:09:12;13.18;;;7.63;;
38132;SDS011;23948;43.252;26.572;2023-04-28T01:11:37;12.63;;;8.38;;
38132;SDS011;23948;43.252;26.572;2023-04-28T01:14:03;14.07;;;8.32;;
38132;SDS011;23948;43.252;26.572;2023-04-28T01:16:28;11.70;;;6.20;;
38132;SDS011;23948;43.252;26.572;2023-04-28T01:18:55;12.05;;;7.00;;
38132;SDS011;23948;43.252;26.572;2023-04-28T01:21:30;10.50;;;5.40;;
38132;SDS011;23948;43.252;26.572;2023-04-28T01:23:56;10.20;;;6.82;;
38132;SDS011;23948;43.252;26.572;2023-04-28T01:26:22;11.43;;;6.68;;
38132;SDS011;23948;43.252;26.572;2023-04-28T01:28:47;10.30;;;6.18;;
38132;SDS011;23948;43.252;26.572;2023-04-28T01:31:12;10.20;;;5.95;;
38132;SDS011;23948;43.252;26.572;2023-04-28T01:33:37;15.05;;;7.35;;
38132;SDS011;23948;43.252;26.572;2023-04-28T01:36:03;10.88;;;5.65;;
38132;SDS011;23948;43.252;26.572;2023-04-28T01:38:28;8.77;;;5.00;;
38132;SDS011;23948;43.252;26.572;2023-04-28T01:40:54;10.80;;;5.47;;
38132;SDS011;23948;43.252;26.572;2023-04-28T01:43:19;10.27;;;5.70;;
38132;SDS011;23948;43.252;26.572;2023-04-28T01:45:44;7.35;;;5.15;;
38132;SDS011;23948;43.252;26.572;2023-04-28T01:48:10;8.77;;;4.63;;
38132;SDS011;23948;43.252;26.572;2023-04-28T01:50:35;7.80;;;5.05;;
38132;SDS011;23948;43.252;26.572;2023-04-28T01:53:00;8.80;;;5.70;;
38132;SDS011;23948;43.252;26.572;2023-04-28T01:55:26;8.25;;;5.57;;
38132;SDS011;23948;43.252;26.572;2023-04-28T01:57:51;8.27;;;4.95;;
38132;SDS011;23948;43.252;26.572;2023-04-28T02:00:16;7.88;;;5.05;;
38132;SDS011;23948;43.252;26.572;2023-04-28T02:02:42;11.55;;;5.07;;
38132;SDS011;23948;43.252;26.572;2023-04-28T02:05:07;9.38;;;4.78;;
38132;SDS011;23948;43.252;26.572;2023-04-28T02:07:32;9.18;;;5.65;;
38132;SDS011;23948;43.252;26.572;2023-04-28T02:09:57;9.90;;;5.68;;
38132;SDS011;23948;43.252;26.572;2023-04-28T02:12:23;11.65;;;6.00;;
38132;SDS011;23948;43.252;26.572;2023-04-28T02:14:48;14.38;;;6.20;;
38132;SDS011;23948;43.252;26.572;2023-04-28T02:17:15;9.75;;;5.80;;
38132;SDS011;23948;43.252;26.572;2023-04-28T02:19:40;10.15;;;5.20;;
38132;SDS011;23948;43.252;26.572;2023-04-28T02:22:05;10.38;;;5.68;;
38132;SDS011;23948;43.252;26.572;2023-04-28T02:24:33;8.45;;;5.35;;
38132;SDS011;23948;43.252;26.572;2023-04-28T02:26:58;11.43;;;5.40;;
38132;SDS011;23948;43.252;26.572;2023-04-28T02:29:25;10.32;;;5.32;;
38132;SDS011;23948;43.252;26.572;2023-04-28T02:31:50;7.57;;;4.60;;
38132;SDS011;23948;43.252;26.572;2023-04-28T02:34:15;10.30;;;4.93;;
38132;SDS011;23948;43.252;26.572;2023-04-28T02:36:41;10.77;;;4.80;;
38132;SDS011;23948;43.252;26.572;2023-04-28T02:39:06;9.25;;;5.20;;
38132;SDS011;23948;43.252;26.572;2023-04-28T02:41:31;8.93;;;4.97;;
38132;SDS011;23948;43.252;26.572;2023-04-28T02:43:58;9.05;;;5.00;;
38132;SDS011;23948;43.252;26.572;2023-04-28T02:46:23;7.43;;;4.65;;
38132;SDS011;23948;43.252;26.572;2023-04-28T02:48:49;8.30;;;4.88;;
38132;SDS011;23948;43.252;26.572;2023-04-28T02:51:14;8.45;;;5.35;;
38132;SDS011;23948;43.252;26.572;2023-04-28T02:53:39;9.27;;;5.82;;
38132;SDS011;23948;43.252;26.572;2023-04-28T02:56:05;10.82;;;6.57;;
38132;SDS011;23948;43.252;26.572;2023-04-28T02:58:30;10.18;;;4.78;;
38132;SDS011;23948;43.252;26.572;2023-04-28T03:00:56;9.00;;;4.80;;
38132;SDS011;23948;43.252;26.572;2023-04-28T03:03:21;9.68;;;5.03;;
38132;SDS011;23948;43.252;26.572;2023-04-28T03:05:46;8.70;;;4.93;;
38132;SDS011;23948;43.252;26.572;2023-04-28T03:08:11;10.18;;;5.13;;
38132;SDS011;23948;43.252;26.572;2023-04-28T03:10:37;8.73;;;5.45;;
38132;SDS011;23948;43.252;26.572;2023-04-28T03:13:02;8.45;;;5.25;;
38132;SDS011;23948;43.252;26.572;2023-04-28T03:15:27;9.35;;;5.20;;
38132;SDS011;23948;43.252;26.572;2023-04-28T03:17:53;9.18;;;5.55;;
38132;SDS011;23948;43.252;26.572;2023-04-28T03:20:18;11.80;;;6.60;;
38132;SDS011;23948;43.252;26.572;2023-04-28T03:22:43;9.82;;;5.60;;
38132;SDS011;23948;43.252;26.572;2023-04-28T03:25:08;10.27;;;5.60;;
38132;SDS011;23948;43.252;26.572;2023-04-28T03:27:34;13.80;;;5.45;;
38132;SDS011;23948;43.252;26.572;2023-04-28T03:30:00;10.85;;;6.20;;
38132;SDS011;23948;43.252;26.572;2023-04-28T03:32:25;13.15;;;6.78;;
38132;SDS011;23948;43.252;26.572;2023-04-28T03:34:50;11.30;;;5.85;;
38132;SDS011;23948;43.252;26.572;2023-04-28T03:37:16;9.95;;;5.70;;
38132;SDS011;23948;43.252;26.572;2023-04-28T03:39:41;9.43;;;5.38;;
38132;SDS011;23948;43.252;26.572;2023-04-28T03:42:06;9.45;;;5.20;;
38132;SDS011;23948;43.252;26.572;2023-04-28T03:44:31;8.93;;;5.47;;
38132;SDS011;23948;43.252;26.572;2023-04-28T03:46:57;9.07;;;5.00;;
38132;SDS011;23948;43.252;26.572;2023-04-28T03:49:22;12.93;;;7.10;;
38132;SDS011;23948;43.252;26.572;2023-04-28T03:51:47;14.38;;;6.85;;
38132;SDS011;23948;43.252;26.572;2023-04-28T03:54:14;29.38;;;13.95;;
38132;SDS011;23948;43.252;26.572;2023-04-28T03:56:39;23.25;;;11.52;;
38132;SDS011;23948;43.252;26.572;2023-04-28T03:59:04;21.65;;;12.25;;
38132;SDS011;23948;43.252;26.572;2023-04-28T04:01:29;17.58;;;10.45;;
38132;SDS011;23948;43.252;26.572;2023-04-28T04:03:55;17.95;;;8.93;;
38132;SDS011;23948;43.252;26.572;2023-04-28T04:06:20;15.75;;;12.88;;
38132;SDS011;23948;43.252;26.572;2023-04-28T04:08:46;12.25;;;9.32;;
38132;SDS011;23948;43.252;26.572;2023-04-28T04:11:11;12.02;;;8.38;;
38132;SDS011;23948;43.252;26.572;2023-04-28T04:13:37;16.35;;;10.57;;
38132;SDS011;23948;43.252;26.572;2023-04-28T04:16:02;18.08;;;12.85;;
38132;SDS011;23948;43.252;26.572;2023-04-28T04:18:27;18.45;;;13.07;;
38132;SDS011;23948;43.252;26.572;2023-04-28T04:20:53;20.15;;;12.88;;
38132;SDS011;23948;43.252;26.572;2023-04-28T04:23:20;15.13;;;7.88;;
38132;SDS011;23948;43.252;26.572;2023-04-28T04:25:45;12.18;;;6.07;;
38132;SDS011;23948;43.252;26.572;2023-04-28T04:28:11;14.55;;;6.55;;
38132;SDS011;23948;43.252;26.572;2023-04-28T04:30:36;11.25;;;6.82;;
38132;SDS011;23948;43.252;26.572;2023-04-28T04:33:01;14.75;;;7.10;;
38132;SDS011;23948;43.252;26.572;2023-04-28T04:35:26;10.73;;;6.25;;
38132;SDS011;23948;43.252;26.572;2023-04-28T04:37:52;9.98;;;5.88;;
38132;SDS011;23948;43.252;26.572;2023-04-28T04:40:17;12.30;;;7.18;;
38132;SDS011;23948;43.252;26.572;2023-04-28T04:42:42;12.77;;;7.00;;
38132;SDS011;23948;43.252;26.572;2023-04-28T04:45:08;11.35;;;5.93;;
38132;SDS011;23948;43.252;26.572;2023-04-28T04:47:33;9.25;;;5.88;;
38132;SDS011;23948;43.252;26.572;2023-04-28T04:49:59;12.35;;;7.03;;
38132;SDS011;23948;43.252;26.572;2023-04-28T04:52:24;11.48;;;6.68;;
38132;SDS011;23948;43.252;26.572;2023-04-28T04:54:49;12.18;;;6.85;;
38132;SDS011;23948;43.252;26.572;2023-04-28T04:57:15;11.35;;;6.07;;
38132;SDS011;23948;43.252;26.572;2023-04-28T04:59:40;13.15;;;6.80;;
38132;SDS011;23948;43.252;26.572;2023-04-28T05:02:05;15.02;;;9.77;;
38132;SDS011;23948;43.252;26.572;2023-04-28T05:04:31;23.15;;;10.35;;
38132;SDS011;23948;43.252;26.572;2023-04-28T05:06:56;15.27;;;10.32;;
38132;SDS011;23948;43.252;26.572;2023-04-28T05:09:21;17.00;;;10.07;;
38132;SDS011;23948;43.252;26.572;2023-04-28T05:11:47;22.13;;;10.23;;
38132;SDS011;23948;43.252;26.572;2023-04-28T05:14:13;18.27;;;12.15;;
38132;SDS011;23948;43.252;26.572;2023-04-28T05:16:38;12.13;;;7.45;;
38132;SDS011;23948;43.252;26.572;2023-04-28T05:19:03;13.70;;;7.07;;
38132;SDS011;23948;43.252;26.572;2023-04-28T05:21:29;14.95;;;7.18;;
38132;SDS011;23948;43.252;26.572;2023-04-28T05:23:55;10.13;;;5.53;;
38132;SDS011;23948;43.252;26.572;2023-04-28T05:26:21;15.93;;;6.82;;
38132;SDS011;23948;43.252;26.572;2023-04-28T05:28:46;16.70;;;7.38;;
38132;SDS011;23948;43.252;26.572;2023-04-28T05:31:11;10.60;;;6.88;;
38132;SDS011;23948;43.252;26.572;2023-04-28T05:33:37;14.68;;;7.97;;
38132;SDS011;23948;43.252;26.572;2023-04-28T05:36:02;12.88;;;6.47;;
38132;SDS011;23948;43.252;26.572;2023-04-28T05:38:27;12.93;;;6.25;;
38132;SDS011;23948;43.252;26.572;2023-04-28T05:40:53;11.45;;;4.78;;
38132;SDS011;23948;43.252;26.572;2023-04-28T05:43:18;12.02;;;4.05;;
38132;SDS011;23948;43.252;26.572;2023-04-28T05:45:43;13.25;;;4.25;;
38132;SDS011;23948;43.252;26.572;2023-04-28T05:48:09;8.45;;;4.10;;
38132;SDS011;23948;43.252;26.572;2023-04-28T05:50:34;9.18;;;4.13;;
38132;SDS011;23948;43.252;26.572;2023-04-28T05:52:59;11.02;;;4.10;;
38132;SDS011;23948;43.252;26.572;2023-04-28T05:55:25;13.57;;;4.07;;
38132;SDS011;23948;43.252;26.572;2023-04-28T05:57:52;12.70;;;3.42;;
38132;SDS011;23948;43.252;26.572;2023-04-28T06:00:17;10.27;;;3.75;;
38132;SDS011;23948;43.252;26.572;2023-04-28T06:02:42;8.05;;;3.83;;
38132;SDS011;23948;43.252;26.572;2023-04-28T06:05:08;9.50;;;4.03;;
38132;SDS011;23948;43.252;26.572;2023-04-28T06:07:33;11.27;;;3.47;;
38132;SDS011;23948;43.252;26.572;2023-04-28T06:09:58;8.40;;;3.78;;
38132;SDS011;23948;43.252;26.572;2023-04-28T06:12:24;11.15;;;4.30;;
38132;SDS011;23948;43.252;26.572;2023-04-28T06:14:50;8.70;;;3.42;;
38132;SDS011;23948;43.252;26.572;2023-04-28T06:17:17;12.45;;;4.85;;
38132;SDS011;23948;43.252;26.572;2023-04-28T06:19:42;10.07;;;3.80;;
38132;SDS011;23948;43.252;26.572;2023-04-28T06:22:07;7.93;;;3.40;;
38132;SDS011;23948;43.252;26.572;2023-04-28T06:24:33;12.30;;;4.30;;
38132;SDS011;23948;43.252;26.572;2023-04-28T06:26:58;8.60;;;3.38;;
38132;SDS011;23948;43.252;26.572;2023-04-28T06:29:23;7.63;;;3.10;;
38132;SDS011;23948;43.252;26.572;2023-04-28T06:31:49;8.27;;;3.10;;
38132;SDS011;23948;43.252;26.572;2023-04-28T06:34:14;12.55;;;3.60;;
38132;SDS011;23948;43.252;26.572;2023-04-28T06:36:39;7.40;;;2.90;;
38132;SDS011;23948;43.252;26.572;2023-04-28T06:39:05;9.73;;;3.35;;
38132;SDS011;23948;43.252;26.572;2023-04-28T06:41:30;10.20;;;3.35;;
38132;SDS011;23948;43.252;26.572;2023-04-28T06:43:55;7.60;;;3.08;;
38132;SDS011;23948;43.252;26.572;2023-04-28T06:46:21;8.77;;;4.10;;
38132;SDS011;23948;43.252;26.572;2023-04-28T06:48:46;9.43;;;3.10;;
38132;SDS011;23948;43.252;26.572;2023-04-28T06:51:13;6.32;;;2.67;;
38132;SDS011;23948;43.252;26.572;2023-04-28T06:53:38;10.90;;;3.00;;
38132;SDS011;23948;43.252;26.572;2023-04-28T06:56:04;9.57;;;2.83;;
38132;SDS011;23948;43.252;26.572;2023-04-28T06:58:29;8.13;;;2.92;;
38132;SDS011;23948;43.252;26.572;2023-04-28T07:00:55;6.70;;;3.30;;
38132;SDS011;23948;43.252;26.572;2023-04-28T07:03:20;12.35;;;3.58;;
38132;SDS011;23948;43.252;26.572;2023-04-28T07:05:45;8.65;;;2.58;;
38132;SDS011;23948;43.252;26.572;2023-04-28T07:08:10;8.25;;;3.22;;
38132;SDS011;23948;43.252;26.572;2023-04-28T07:10:36;6.53;;;2.80;;
38132;SDS011;23948;43.252;26.572;2023-04-28T07:13:01;7.68;;;2.88;;
38132;SDS011;23948;43.252;26.572;2023-04-28T07:15:27;6.63;;;2.50;;
38132;SDS011;23948;43.252;26.572;2023-04-28T07:17:52;7.03;;;2.72;;
38132;SDS011;23948;43.252;26.572;2023-04-28T07:20:17;7.25;;;2.25;;
38132;SDS011;23948;43.252;26.572;2023-04-28T07:22:43;7.05;;;3.17;;
38132;SDS011;23948;43.252;26.572;2023-04-28T07:25:08;11.00;;;3.33;;
38132;SDS011;23948;43.252;26.572;2023-04-28T07:27:33;9.77;;;3.38;;
38132;SDS011;23948;43.252;26.572;2023-04-28T07:29:59;8.00;;;2.70;;
38132;SDS011;23948;43.252;26.572;2023-04-28T07:32:24;8.10;;;2.80;;
38132;SDS011;23948;43.252;26.572;2023-04-28T07:34:49;7.60;;;3.00;;
38132;SDS011;23948;43.252;26.572;2023-04-28T07:37:15;9.38;;;2.42;;
38132;SDS011;23948;43.252;26.572;2023-04-28T07:39:40;8.93;;;3.00;;
38132;SDS011;23948;43.252;26.572;2023-04-28T07:42:06;8.55;;;3.20;;
38132;SDS011;23948;43.252;26.572;2023-04-28T07:44:31;7.47;;;2.28;;
38132;SDS011;23948;43.252;26.572;2023-04-28T07:46:58;7.07;;;2.45;;
38132;SDS011;23948;43.252;26.572;2023-04-28T07:49:23;9.35;;;2.58;;
38132;SDS011;23948;43.252;26.572;2023-04-28T07:51:48;7.55;;;2.47;;
38132;SDS011;23948;43.252;26.572;2023-04-28T07:54:16;9.10;;;2.47;;
38132;SDS011;23948;43.252;26.572;2023-04-28T07:56:41;7.97;;;2.75;;
38132;SDS011;23948;43.252;26.572;2023-04-28T07:59:06;10.00;;;3.33;;
38132;SDS011;23948;43.252;26.572;2023-04-28T08:01:32;9.38;;;3.55;;
38132;SDS011;23948;43.252;26.572;2023-04-28T08:03:57;19.77;;;7.05;;
38132;SDS011;23948;43.252;26.572;2023-04-28T08:06:22;11.43;;;4.35;;
38132;SDS011;23948;43.252;26.572;2023-04-28T08:08:47;11.13;;;4.05;;
38132;SDS011;23948;43.252;26.572;2023-04-28T08:11:13;9.38;;;3.35;;
38132;SDS011;23948;43.252;26.572;2023-04-28T08:13:38;9.52;;;3.88;;
38132;SDS011;23948;43.252;26.572;2023-04-28T08:16:03;9.55;;;3.40;;
38132;SDS011;23948;43.252;26.572;2023-04-28T08:18:29;7.22;;;3.55;;
38132;SDS011;23948;43.252;26.572;2023-04-28T08:20:54;9.07;;;2.75;;
38132;SDS011;23948;43.252;26.572;2023-04-28T08:23:20;11.30;;;2.95;;
38132;SDS011;23948;43.252;26.572;2023-04-28T08:25:45;6.90;;;3.05;;
38132;SDS011;23948;43.252;26.572;2023-04-28T08:28:11;12.55;;;3.70;;
38132;SDS011;23948;43.252;26.572;2023-04-28T08:30:36;14.52;;;6.05;;
38132;SDS011;23948;43.252;26.572;2023-04-28T08:33:03;9.63;;;2.88;;
38132;SDS011;23948;43.252;26.572;2023-04-28T08:35:28;9.80;;;2.60;;
38132;SDS011;23948;43.252;26.572;2023-04-28T08:37:56;4.68;;;2.65;;
38132;SDS011;23948;43.252;26.572;2023-04-28T08:40:22;10.15;;;3.20;;
38132;SDS011;23948;43.252;26.572;2023-04-28T08:42:48;6.75;;;2.63;;
38132;SDS011;23948;43.252;26.572;2023-04-28T08:45:14;9.98;;;3.13;;
38132;SDS011;23948;43.252;26.572;2023-04-28T08:47:39;7.68;;;2.83;;
38132;SDS011;23948;43.252;26.572;2023-04-28T08:50:09;8.60;;;2.40;;
38132;SDS011;23948;43.252;26.572;2023-04-28T08:52:36;10.77;;;2.78;;
38132;SDS011;23948;43.252;26.572;2023-04-28T08:57:34;13.40;;;3.25;;
38132;SDS011;23948;43.252;26.572;2023-04-28T09:00:00;7.50;;;2.60;;
38132;SDS011;23948;43.252;26.572;2023-04-28T09:02:25;9.48;;;2.30;;
38132;SDS011;23948;43.252;26.572;2023-04-28T09:04:50;6.55;;;2.70;;
38132;SDS011;23948;43.252;26.572;2023-04-28T09:07:16;11.70;;;3.25;;
38132;SDS011;23948;43.252;26.572;2023-04-28T09:09:41;5.32;;;2.60;;
38132;SDS011;23948;43.252;26.572;2023-04-28T09:12:08;4.43;;;2.05;;
38132;SDS011;23948;43.252;26.572;2023-04-28T09:14:34;6.82;;;3.00;;
38132;SDS011;23948;43.252;26.572;2023-04-28T09:17:00;13.68;;;5.85;;
38132;SDS011;23948;43.252;26.572;2023-04-28T09:19:32;10.02;;;2.92;;
38132;SDS011;23948;43.252;26.572;2023-04-28T09:21:58;5.60;;;2.35;;
38132;SDS011;23948;43.252;26.572;2023-04-28T09:24:33;9.32;;;2.70;;
38132;SDS011;23948;43.252;26.572;2023-04-28T09:26:59;10.50;;;3.65;;
38132;SDS011;23948;43.252;26.572;2023-04-28T09:29:26;9.70;;;2.70;;
38132;SDS011;23948;43.252;26.572;2023-04-28T09:31:51;7.20;;;3.17;;
38132;SDS011;23948;43.252;26.572;2023-04-28T09:34:17;7.72;;;3.38;;
38132;SDS011;23948;43.252;26.572;2023-04-28T09:36:42;9.00;;;2.92;;
38132;SDS011;23948;43.252;26.572;2023-04-28T09:39:08;4.95;;;2.17;;
38132;SDS011;23948;43.252;26.572;2023-04-28T09:41:37;6.05;;;2.40;;
38132;SDS011;23948;43.252;26.572;2023-04-28T09:44:10;15.13;;;3.50;;
38132;SDS011;23948;43.252;26.572;2023-04-28T09:46:35;8.30;;;3.40;;
38132;SDS011;23948;43.252;26.572;2023-04-28T09:49:00;9.73;;;3.28;;
38132;SDS011;23948;43.252;26.572;2023-04-28T09:51:26;8.65;;;3.67;;
38132;SDS011;23948;43.252;26.572;2023-04-28T09:53:52;9.60;;;3.33;;
38132;SDS011;23948;43.252;26.572;2023-04-28T09:56:18;8.40;;;2.70;;
38132;SDS011;23948;43.252;26.572;2023-04-28T09:58:45;10.82;;;3.42;;
38132;SDS011;23948;43.252;26.572;2023-04-28T10:01:12;8.57;;;4.57;;
38132;SDS011;23948;43.252;26.572;2023-04-28T10:03:37;12.63;;;3.67;;
38132;SDS011;23948;43.252;26.572;2023-04-28T10:06:03;13.00;;;2.90;;
38132;SDS011;23948;43.252;26.572;2023-04-28T10:08:29;7.55;;;2.60;;
38132;SDS011;23948;43.252;26.572;2023-04-28T10:10:54;6.97;;;3.00;;
38132;SDS011;23948;43.252;26.572;2023-04-28T10:13:21;6.72;;;2.90;;
38132;SDS011;23948;43.252;26.572;2023-04-28T10:15:47;11.82;;;3.65;;
38132;SDS011;23948;43.252;26.572;2023-04-28T10:18:13;11.80;;;2.83;;
38132;SDS011;23948;43.252;26.572;2023-04-28T10:20:44;8.88;;;3.10;;
38132;SDS011;23948;43.252;26.572;2023-04-28T10:25:48;5.97;;;2.92;;
38132;SDS011;23948;43.252;26.572;2023-04-28T10:28:14;12.23;;;4.78;;
38132;SDS011;23948;43.252;26.572;2023-04-28T10:30:40;6.80;;;2.63;;
38132;SDS011;23948;43.252;26.572;2023-04-28T10:35:43;11.77;;;3.20;;
38132;SDS011;23948;43.252;26.572;2023-04-28T10:40:38;5.80;;;2.85;;
38132;SDS011;23948;43.252;26.572;2023-04-28T10:43:04;12.23;;;4.03;;
38132;SDS011;23948;43.252;26.572;2023-04-28T10:48:14;15.55;;;4.40;;
38132;SDS011;23948;43.252;26.572;2023-04-28T10:56:22;5.00;;;2.67;;
38132;SDS011;23948;43.252;26.572;2023-04-28T10:58:51;11.65;;;3.33;;
38132;SDS011;23948;43.252;26.572;2023-04-28T11:06:39;8.00;;;3.38;;
38132;SDS011;23948;43.252;26.572;2023-04-28T11:11:36;8.63;;;3.45;;
38132;SDS011;23948;43.252;26.572;2023-04-28T11:19:08;5.93;;;2.67;;
38132;SDS011;23948;43.252;26.572;2023-04-28T11:21:40;7.78;;;2.92;;
38132;SDS011;23948;43.252;26.572;2023-04-28T11:24:08;7.35;;;2.85;;
38132;SDS011;23948;43.252;26.572;2023-04-28T11:26:36;11.70;;;3.23;;
38132;SDS011;23948;43.252;26.572;2023-04-28T11:29:01;9.65;;;3.65;;
38132;SDS011;23948;43.252;26.572;2023-04-28T11:31:26;11.63;;;3.55;;
38132;SDS011;23948;43.252;26.572;2023-04-28T11:33:57;7.60;;;3.83;;
38132;SDS011;23948;43.252;26.572;2023-04-28T11:38:48;10.65;;;3.92;;
38132;SDS011;23948;43.252;26.572;2023-04-28T11:41:13;9.55;;;3.75;;
38132;SDS011;23948;43.252;26.572;2023-04-28T11:43:38;13.40;;;4.88;;
38132;SDS011;23948;43.252;26.572;2023-04-28T11:46:06;12.90;;;5.45;;
38132;SDS011;23948;43.252;26.572;2023-04-28T11:48:31;7.40;;;4.00;;
38132;SDS011;23948;43.252;26.572;2023-04-28T11:50:57;8.68;;;4.15;;
38132;SDS011;23948;43.252;26.572;2023-04-28T11:53:39;11.52;;;4.75;;
38132;SDS011;23948;43.252;26.572;2023-04-28T11:56:05;10.50;;;4.28;;
38132;SDS011;23948;43.252;26.572;2023-04-28T11:58:32;9.80;;;4.53;;
38132;SDS011;23948;43.252;26.572;2023-04-28T12:01:09;8.68;;;3.78;;
38132;SDS011;23948;43.252;26.572;2023-04-28T12:03:46;11.25;;;3.83;;
38132;SDS011;23948;43.252;26.572;2023-04-28T12:06:11;12.07;;;3.35;;
38132;SDS011;23948;43.252;26.572;2023-04-28T12:08:41;9.25;;;3.15;;
38132;SDS011;23948;43.252;26.572;2023-04-28T12:11:10;10.15;;;3.83;;
38132;SDS011;23948;43.252;26.572;2023-04-28T12:13:38;7.97;;;3.90;;
38132;SDS011;23948;43.252;26.572;2023-04-28T12:16:06;9.15;;;4.20;;
38132;SDS011;23948;43.252;26.572;2023-04-28T12:18:34;14.40;;;5.10;;
38132;SDS011;23948;43.252;26.572;2023-04-28T12:21:03;10.25;;;4.82;;
38132;SDS011;23948;43.252;26.572;2023-04-28T12:23:32;12.02;;;5.10;;
38132;SDS011;23948;43.252;26.572;2023-04-28T12:25:58;10.82;;;6.05;;
38132;SDS011;23948;43.252;26.572;2023-04-28T12:28:34;11.35;;;5.07;;
38132;SDS011;23948;43.252;26.572;2023-04-28T12:31:04;9.50;;;4.00;;
38132;SDS011;23948;43.252;26.572;2023-04-28T12:33:34;11.60;;;4.40;;
38132;SDS011;23948;43.252;26.572;2023-04-28T12:36:02;11.52;;;3.90;;
38132;SDS011;23948;43.252;26.572;2023-04-28T12:38:31;10.98;;;3.85;;
38132;SDS011;23948;43.252;26.572;2023-04-28T12:40:57;11.30;;;4.53;;
38132;SDS011;23948;43.252;26.572;2023-04-28T12:43:22;8.57;;;4.43;;
38132;SDS011;23948;43.252;26.572;2023-04-28T12:45:51;9.95;;;4.20;;
38132;SDS011;23948;43.252;26.572;2023-04-28T12:48:22;9.90;;;4.57;;
38132;SDS011;23948;43.252;26.572;2023-04-28T12:50:49;20.20;;;5.13;;
38132;SDS011;23948;43.252;26.572;2023-04-28T12:53:17;13.98;;;4.25;;
38132;SDS011;23948;43.252;26.572;2023-04-28T12:55:42;10.95;;;3.85;;
38132;SDS011;23948;43.252;26.572;2023-04-28T12:58:08;11.20;;;4.03;;
38132;SDS011;23948;43.252;26.572;2023-04-28T13:00:33;8.50;;;3.33;;
38132;SDS011;23948;43.252;26.572;2023-04-28T13:02:58;9.15;;;3.58;;
38132;SDS011;23948;43.252;26.572;2023-04-28T13:05:24;8.63;;;3.58;;
38132;SDS011;23948;43.252;26.572;2023-04-28T13:07:52;10.60;;;3.70;;
38132;SDS011;23948;43.252;26.572;2023-04-28T13:10:17;11.20;;;4.40;;
38132;SDS011;23948;43.252;26.572;2023-04-28T13:12:45;7.53;;;4.13;;
38132;SDS011;23948;43.252;26.572;2023-04-28T13:15:10;9.20;;;4.30;;
38132;SDS011;23948;43.252;26.572;2023-04-28T13:17:35;7.13;;;3.40;;
38132;SDS011;23948;43.252;26.572;2023-04-28T13:20:01;13.02;;;3.97;;
38132;SDS011;23948;43.252;26.572;2023-04-28T13:22:27;15.30;;;3.63;;
38132;SDS011;23948;43.252;26.572;2023-04-28T13:24:53;13.80;;;5.38;;
38132;SDS011;23948;43.252;26.572;2023-04-28T13:27:18;10.43;;;3.88;;
38132;SDS011;23948;43.252;26.572;2023-04-28T13:29:44;20.92;;;13.55;;
38132;SDS011;23948;43.252;26.572;2023-04-28T13:32:11;14.80;;;6.13;;
38132;SDS011;23948;43.252;26.572;2023-04-28T13:34:36;15.23;;;4.30;;
38132;SDS011;23948;43.252;26.572;2023-04-28T13:37:02;10.50;;;3.58;;
38132;SDS011;23948;43.252;26.572;2023-04-28T13:39:27;10.98;;;5.05;;
38132;SDS011;23948;43.252;26.572;2023-04-28T13:41:52;11.60;;;4.43;;
38132;SDS011;23948;43.252;26.572;2023-04-28T13:44:18;20.52;;;7.13;;
38132;SDS011;23948;43.252;26.572;2023-04-28T13:46:43;11.90;;;5.30;;
38132;SDS011;23948;43.252;26.572;2023-04-28T13:49:09;11.02;;;4.28;;
38132;SDS011;23948;43.252;26.572;2023-04-28T13:51:34;8.23;;;4.13;;
38132;SDS011;23948;43.252;26.572;2023-04-28T13:54:00;7.18;;;3.30;;
38132;SDS011;23948;43.252;26.572;2023-04-28T13:56:29;11.68;;;4.55;;
38132;SDS011;23948;43.252;26.572;2023-04-28T13:58:54;16.33;;;4.65;;
38132;SDS011;23948;43.252;26.572;2023-04-28T14:01:19;12.30;;;4.00;;
38132;SDS011;23948;43.252;26.572;2023-04-28T14:03:45;10.15;;;3.92;;
38132;SDS011;23948;43.252;26.572;2023-04-28T14:06:10;11.55;;;3.80;;
38132;SDS011;23948;43.252;26.572;2023-04-28T14:08:35;9.57;;;4.78;;
38132;SDS011;23948;43.252;26.572;2023-04-28T14:11:01;10.57;;;4.53;;
38132;SDS011;23948;43.252;26.572;2023-04-28T14:13:26;13.23;;;5.00;;
38132;SDS011;23948;43.252;26.572;2023-04-28T14:15:51;15.57;;;6.03;;
38132;SDS011;23948;43.252;26.572;2023-04-28T14:18:18;14.68;;;7.00;;
38132;SDS011;23948;43.252;26.572;2023-04-28T14:20:43;16.00;;;6.38;;
38132;SDS011;23948;43.252;26.572;2023-04-28T14:23:08;13.10;;;5.00;;
38132;SDS011;23948;43.252;26.572;2023-04-28T14:25:33;10.35;;;3.95;;
38132;SDS011;23948;43.252;26.572;2023-04-28T14:27:59;14.02;;;5.18;;
38132;SDS011;23948;43.252;26.572;2023-04-28T14:30:25;11.90;;;5.10;;
38132;SDS011;23948;43.252;26.572;2023-04-28T14:32:51;11.70;;;4.18;;
38132;SDS011;23948;43.252;26.572;2023-04-28T14:35:16;12.18;;;4.90;;
38132;SDS011;23948;43.252;26.572;2023-04-28T14:37:42;13.48;;;4.68;;
38132;SDS011;23948;43.252;26.572;2023-04-28T14:40:07;6.35;;;3.80;;
38132;SDS011;23948;43.252;26.572;2023-04-28T14:42:33;9.65;;;4.30;;
38132;SDS011;23948;43.252;26.572;2023-04-28T14:45:02;10.23;;;5.85;;
38132;SDS011;23948;43.252;26.572;2023-04-28T14:47:28;12.13;;;5.43;;
38132;SDS011;23948;43.252;26.572;2023-04-28T14:49:54;10.90;;;4.55;;
38132;SDS011;23948;43.252;26.572;2023-04-28T14:52:20;11.15;;;3.88;;